Time;durP1;ratioP1;P1;durP2;ratioP2;P2;SDS_P1;SDS_P2;PMS_P1;PMS_P2;Temp;Humidity;BMP_temperature;BMP_pressure;BME280_temperature;BME280_humidity;BME280_pressure;Samples;Min_cycle;Max_cycle;Signal;HPM_P1;HPM_P2
2024/03/23 00:02:26;;;;;;;28.10;18.80;;;;;;;9.52;100.00;99874.59;104442;1273;107388;-77
2024/03/23 00:05:12;;;;;;;30.90;19.10;;;;;;;9.53;100.00;99873.88;105063;1273;99799;-77
2024/03/23 00:07:58;;;;;;;33.70;20.50;;;;;;;9.52;100.00;99870.59;104406;1270;99974;-76
2024/03/23 00:10:43;;;;;;;32.10;19.60;;;;;;;9.50;100.00;99868.33;104555;1285;102796;-76
2024/03/23 00:13:32;;;;;;;33.90;20.40;;;;;;;9.47;100.00;99867.48;104477;1286;100224;-75
2024/03/23 00:16:17;;;;;;;35.10;22.00;;;;;;;9.44;100.00;99862.82;104520;1275;99351;-76
2024/03/23 00:19:03;;;;;;;34.30;22.60;;;;;;;9.44;100.00;99856.84;104454;1285;99352;-76
2024/03/23 00:21:48;;;;;;;35.40;22.10;;;;;;;9.43;100.00;99855.33;104479;1273;100340;-76
2024/03/23 00:24:34;;;;;;;40.50;23.90;;;;;;;9.41;100.00;99852.41;104393;1271;102743;-75
2024/03/23 00:27:19;;;;;;;39.50;22.90;;;;;;;9.39;100.00;99845.73;104539;1273;100393;-77
2024/03/23 00:30:04;;;;;;;37.30;22.80;;;;;;;9.38;100.00;99841.04;104412;1273;99336;-75
2024/03/23 00:32:50;;;;;;;38.60;24.20;;;;;;;9.37;100.00;99831.24;104517;1273;99326;-76
2024/03/23 00:35:35;;;;;;;36.20;23.10;;;;;;;9.36;100.00;99829.71;104472;1275;99953;-76
2024/03/23 00:38:22;;;;;;;41.10;23.90;;;;;;;9.35;100.00;99829.51;104552;1273;102738;-76
2024/03/23 00:41:07;;;;;;;36.70;23.30;;;;;;;9.32;100.00;99820.73;104688;1270;99403;-75
2024/03/23 00:43:52;;;;;;;40.40;23.70;;;;;;;9.31;100.00;99812.70;104607;1272;99394;-75
2024/03/23 00:46:38;;;;;;;37.30;23.20;;;;;;;9.30;100.00;99811.76;104449;1274;100506;-75
2024/03/23 00:49:24;;;;;;;39.50;24.40;;;;;;;9.28;100.00;99810.89;104561;1270;99804;-75
2024/03/23 00:52:09;;;;;;;40.50;23.50;;;;;;;9.28;100.00;99805.63;104643;1270;103484;-77
2024/03/23 00:54:55;;;;;;;39.30;22.10;;;;;;;9.27;100.00;99802.16;104441;1270;99770;-76
2024/03/23 00:57:41;;;;;;;46.20;27.90;;;;;;;9.26;100.00;99799.41;104548;1273;100673;-77
2024/03/23 01:00:26;;;;;;;39.80;24.60;;;;;;;9.26;100.00;99795.29;104523;1273;99349;-77
2024/03/23 01:03:12;;;;;;;40.20;25.30;;;;;;;9.26;100.00;99790.84;104570;1274;99860;-77
2024/03/23 01:06:01;;;;;;;41.10;24.90;;;;;;;9.26;100.00;99784.10;104573;1270;103577;-77
2024/03/23 01:08:47;;;;;;;43.40;26.10;;;;;;;9.25;100.00;99781.71;104445;1273;100393;-74
2024/03/23 01:11:32;;;;;;;40.80;26.20;;;;;;;9.23;100.00;99783.48;104595;1273;100607;-76
2024/03/23 01:14:18;;;;;;;40.10;25.30;;;;;;;9.21;100.00;99789.02;104492;1273;99458;-77
2024/03/23 01:17:03;;;;;;;41.00;25.70;;;;;;;9.21;100.00;99793.80;104520;1268;99857;-76
2024/03/23 01:19:49;;;;;;;41.20;25.70;;;;;;;9.21;100.00;99793.66;104567;1271;103220;-76
2024/03/23 01:22:34;;;;;;;45.50;27.40;;;;;;;9.21;100.00;99787.66;104526;1273;100861;-76
2024/03/23 01:25:20;;;;;;;40.80;25.90;;;;;;;9.20;100.00;99787.91;104632;1272;99361;-77
2024/03/23 01:28:06;;;;;;;45.70;25.90;;;;;;;9.20;100.00;99778.86;104747;1273;99358;-77
2024/03/23 01:30:51;;;;;;;43.80;25.90;;;;;;;9.20;100.00;99774.98;104717;1274;99870;-77
2024/03/23 01:33:37;;;;;;;42.00;26.10;;;;;;;9.20;100.00;99772.56;104728;1270;103985;-77
2024/03/23 01:36:22;;;;;;;48.30;28.30;;;;;;;9.21;100.00;99768.27;104662;1269;99351;-77
2024/03/23 01:39:09;;;;;;;45.40;26.10;;;;;;;9.22;100.00;99768.23;104551;1273;99797;-77
2024/03/23 01:41:54;;;;;;;48.00;28.40;;;;;;;9.25;100.00;99774.08;104523;1273;99336;-78
2024/03/23 01:44:40;;;;;;;45.00;26.00;;;;;;;9.27;100.00;99779.39;104570;1273;100939;-77
2024/03/23 01:47:25;;;;;;;47.60;27.60;;;;;;;9.26;100.00;99771.95;104487;1276;102725;-77
2024/03/23 01:50:11;;;;;;;43.60;27.30;;;;;;;9.25;100.00;99764.45;104781;1275;100511;-77
2024/03/23 01:52:57;;;;;;;44.90;26.60;;;;;;;9.25;100.00;99769.45;104709;1273;99464;-78
2024/03/23 01:55:43;;;;;;;48.80;27.90;;;;;;;9.24;100.00;99767.81;104683;1270;99377;-78
2024/03/23 01:58:28;;;;;;;45.80;27.00;;;;;;;9.23;100.00;99762.55;104581;1270;100027;-76
2024/03/23 02:01:14;;;;;;;45.40;27.00;;;;;;;9.24;100.00;99764.78;104610;1270;103990;-77
2024/03/23 02:03:59;;;;;;;47.40;29.30;;;;;;;9.24;100.00;99760.87;104534;1273;100380;-76
2024/03/23 02:06:45;;;;;;;45.40;27.50;;;;;;;9.24;100.00;99759.69;104453;1284;100980;-76
2024/03/23 02:09:31;;;;;;;50.40;29.30;;;;;;;9.22;100.00;99755.02;104547;1284;99332;-76
2024/03/23 02:12:18;;;;;;;49.30;28.30;;;;;;;9.23;100.00;99755.80;104596;1273;99367;-75
2024/03/23 02:15:03;;;;;;;50.90;27.60;;;;;;;9.24;100.00;99755.00;104503;1270;102789;-76
2024/03/23 02:17:49;;;;;;;52.60;28.90;;;;;;;9.25;100.00;99752.52;104519;1273;100445;-76
2024/03/23 02:20:35;;;;;;;49.40;29.30;;;;;;;9.26;100.00;99751.67;104620;1273;99288;-78
2024/03/23 02:23:21;;;;;;;51.60;30.00;;;;;;;9.26;100.00;99747.60;104536;1275;99413;-76
2024/03/23 02:26:06;;;;;;;54.30;30.50;;;;;;;9.26;100.00;99741.84;104460;1276;100951;-76
2024/03/23 02:28:51;;;;;;;50.50;29.80;;;;;;;9.27;100.00;99738.27;104577;1270;103988;-76
2024/03/23 02:31:37;;;;;;;50.50;30.40;;;;;;;9.27;100.00;99735.23;104616;1274;99320;-77
2024/03/23 02:34:22;;;;;;;47.30;30.40;;;;;;;9.26;100.00;99728.53;104474;1272;99339;-76
2024/03/23 02:37:11;;;;;;;51.80;30.80;;;;;;;9.26;100.00;99725.61;104531;1273;99373;-76
2024/03/23 02:39:57;;;;;;;43.90;27.80;;;;;;;9.28;100.00;99723.80;107508;1269;96661;-77
2024/03/23 02:42:43;;;;;;;48.80;29.40;;;;;;;9.28;100.00;99729.27;104515;1273;102744;-76
2024/03/23 02:45:29;;;;;;;51.00;29.60;;;;;;;9.29;100.00;99730.67;104593;1273;100117;-76
2024/03/23 02:48:15;;;;;;;49.00;29.80;;;;;;;9.31;100.00;99732.33;104703;1273;100600;-77
2024/03/23 02:51:00;;;;;;;50.40;28.80;;;;;;;9.33;100.00;99729.41;104561;1276;99386;-76
2024/03/23 02:53:45;;;;;;;46.40;27.80;;;;;;;9.33;100.00;99724.89;104589;1273;100265;-77
2024/03/23 02:56:32;;;;;;;49.90;28.40;;;;;;;9.34;100.00;99722.80;104466;1273;102706;-76
2024/03/23 02:59:18;;;;;;;54.00;29.60;;;;;;;9.35;100.00;99720.42;104680;1273;100525;-76
2024/03/23 03:02:04;;;;;;;48.90;27.80;;;;;;;9.35;100.00;99714.34;104684;1273;99372;-78
2024/03/23 03:04:50;;;;;;;50.40;28.70;;;;;;;9.35;100.00;99709.77;104686;1272;99352;-77
2024/03/23 03:07:37;;;;;;;49.70;28.60;;;;;;;9.34;100.00;99710.22;104752;1274;100411;-75
2024/03/23 03:10:23;;;;;;;45.10;27.70;;;;;;;9.34;100.00;99704.13;104680;1270;102728;-77
2024/03/23 03:13:08;;;;;;;45.80;26.90;;;;;;;9.34;100.00;99701.14;104771;1271;99346;-77
2024/03/23 03:15:54;;;;;;;46.60;27.50;;;;;;;9.35;100.00;99699.90;104760;1273;99426;-77
2024/03/23 03:18:40;;;;;;;45.10;27.10;;;;;;;9.35;100.00;99702.38;104740;1270;99812;-77
2024/03/23 03:21:25;;;;;;;48.20;29.40;;;;;;;9.36;100.00;99701.80;104777;1270;99832;-77
2024/03/23 03:24:11;;;;;;;42.30;26.70;;;;;;;9.37;100.00;99699.02;104532;1270;102769;-76
2024/03/23 03:26:58;;;;;;;43.90;28.00;;;;;;;9.38;100.00;99699.75;104496;1273;99466;-76
2024/03/23 03:29:43;;;;;;;48.20;29.90;;;;;;;9.39;100.00;99699.84;104420;1269;99364;-75
2024/03/23 03:32:29;;;;;;;46.70;28.20;;;;;;;9.38;100.00;99703.82;104490;1271;99464;-76
2024/03/23 03:35:14;;;;;;;48.00;29.10;;;;;;;9.38;100.00;99701.88;104482;1274;99854;-76
2024/03/23 03:38:00;;;;;;;49.20;27.90;;;;;;;9.40;100.00;99698.44;104585;1270;104054;-76
2024/03/23 03:40:46;;;;;;;43.80;26.20;;;;;;;9.41;100.00;99698.65;104486;1270;100622;-77
2024/03/23 03:43:32;;;;;;;44.90;27.40;;;;;;;9.41;100.00;99696.34;104406;1273;99371;-76
2024/03/23 03:46:17;;;;;;;45.00;27.30;;;;;;;9.41;100.00;99690.95;104388;1270;99454;-76
2024/03/23 03:49:03;;;;;;;44.90;26.80;;;;;;;9.42;100.00;99687.66;104403;1270;99357;-77
2024/03/23 03:51:48;;;;;;;42.00;26.00;;;;;;;9.41;100.00;99687.55;104585;1270;104722;-77
2024/03/23 03:54:34;;;;;;;43.50;26.20;;;;;;;9.41;100.00;99684.48;104550;1273;100358;-76
2024/03/23 03:57:19;;;;;;;44.90;26.40;;;;;;;9.42;100.00;99679.77;104568;1273;99858;-77
2024/03/23 04:00:06;;;;;;;37.60;24.40;;;;;;;9.43;100.00;99672.75;104562;1273;99403;-76
2024/03/23 04:02:51;;;;;;;43.70;26.70;;;;;;;9.44;100.00;99670.32;104481;1273;99797;-76
2024/03/23 04:05:37;;;;;;;39.20;25.40;;;;;;;9.44;100.00;99667.37;104508;1270;102742;-76
2024/03/23 04:08:24;;;;;;;41.70;25.70;;;;;;;9.46;100.00;99662.18;104395;1268;99875;-75
2024/03/23 04:11:09;;;;;;;41.00;25.60;;;;;;;9.46;100.00;99659.84;104434;1273;99286;-76
2024/03/23 04:13:55;;;;;;;39.50;24.80;;;;;;;9.46;100.00;99665.02;104469;1273;99345;-76
2024/03/23 04:16:40;;;;;;;39.10;25.60;;;;;;;9.46;100.00;99669.10;104507;1272;99384;-76
2024/03/23 04:19:25;;;;;;;40.90;25.20;;;;;;;9.46;100.00;99670.73;104548;1270;102747;-76
2024/03/23 04:22:11;;;;;;;38.20;25.20;;;;;;;9.45;100.00;99671.93;104595;1271;100399;-77
2024/03/23 04:24:57;;;;;;;38.40;25.50;;;;;;;9.46;100.00;99669.31;104351;1273;99356;-75
2024/03/23 04:27:42;;;;;;;37.60;25.70;;;;;;;9.46;100.00;99657.30;104406;1273;99477;-76
2024/03/23 04:30:29;;;;;;;45.60;28.70;;;;;;;9.47;100.00;99638.83;104397;1273;99310;-76
2024/03/23 04:33:14;;;;;;;43.50;27.00;;;;;;;9.48;100.00;99634.96;104521;1273;102734;-77
2024/03/23 04:36:00;;;;;;;46.00;28.60;;;;;;;9.49;100.00;99638.17;104495;1273;100433;-75
2024/03/23 04:38:46;;;;;;;40.30;27.30;;;;;;;9.50;100.00;99631.05;104512;1271;99269;-77
2024/03/23 04:41:31;;;;;;;46.60;28.80;;;;;;;9.50;100.00;99633.89;104438;1270;99345;-76
2024/03/23 04:44:16;;;;;;;42.80;27.40;;;;;;;9.50;100.00;99630.85;104505;1273;99845;-76
2024/03/23 04:47:02;;;;;;;47.00;30.30;;;;;;;9.51;100.00;99631.67;104478;1273;102727;-77
2024/03/23 04:49:49;;;;;;;45.90;28.70;;;;;;;9.51;100.00;99635.95;104394;1270;100561;-76
2024/03/23 04:52:34;;;;;;;49.40;29.30;;;;;;;9.51;100.00;99640.07;104404;1270;99601;-75
2024/03/23 04:55:22;;;;;;;48.70;29.90;;;;;;;9.52;100.00;99634.02;104398;1270;99385;-76
2024/03/23 04:58:08;;;;;;;50.80;31.00;;;;;;;9.51;100.00;99633.12;104394;1273;99788;-75
2024/03/23 05:00:55;;;;;;;51.50;29.60;;;;;;;9.52;100.00;99635.49;104437;1270;102734;-76
2024/03/23 05:03:40;;;;;;;48.50;29.80;;;;;;;9.52;100.00;99636.04;104426;1270;100626;-76
2024/03/23 05:06:25;;;;;;;47.70;30.40;;;;;;;9.51;100.00;99633.98;104379;1269;100611;-77
2024/03/23 05:09:11;;;;;;;51.50;29.40;;;;;;;9.51;100.00;99627.37;104394;1276;99366;-76
2024/03/23 05:11:57;;;;;;;49.90;28.80;;;;;;;9.52;100.00;99627.48;104456;1270;99797;-75
2024/03/23 05:14:42;;;;;;;51.30;29.90;;;;;;;9.52;100.00;99627.16;104559;1271;104037;-76
2024/03/23 05:17:27;;;;;;;47.40;27.80;;;;;;;9.52;100.00;99627.32;104417;1270;100840;-77
2024/03/23 05:20:13;;;;;;;49.70;30.40;;;;;;;9.50;100.00;99626.63;104394;1273;99395;-76
2024/03/23 05:22:59;;;;;;;57.10;31.00;;;;;;;9.49;100.00;99619.34;104422;1273;99250;-76
2024/03/23 05:25:44;;;;;;;50.40;29.80;;;;;;;9.49;100.00;99615.11;104526;1273;99158;-76
2024/03/23 05:28:30;;;;;;;52.20;29.60;;;;;;;9.50;100.00;99612.42;104516;1270;104467;-76
2024/03/23 05:31:30;;;;;;;53.70;30.20;;;;;;;9.51;100.00;99613.54;104521;1273;100549;-76
2024/03/23 05:34:16;;;;;;;54.10;32.00;;;;;;;9.52;100.00;99609.34;104426;1273;99934;-77
2024/03/23 05:37:02;;;;;;;51.40;30.10;;;;;;;9.52;100.00;99598.21;104365;1273;99377;-76
2024/03/23 05:39:50;;;;;;;56.20;31.40;;;;;;;9.53;100.00;99591.30;104370;1270;100965;-76
2024/03/23 05:42:36;;;;;;;52.50;30.50;;;;;;;9.55;100.00;99597.19;104472;1273;102715;-77
2024/03/23 05:45:22;;;;;;;53.30;31.30;;;;;;;9.56;100.00;99605.08;104559;1272;99370;-77
2024/03/23 05:48:07;;;;;;;52.60;31.20;;;;;;;9.56;100.00;99607.45;104546;1275;99330;-76
2024/03/23 05:50:53;;;;;;;49.80;29.90;;;;;;;9.57;100.00;99601.58;104427;1270;99288;-75
2024/03/23 05:53:39;;;;;;;53.10;30.20;;;;;;;9.59;100.00;99593.20;104311;1271;99246;-75
2024/03/23 05:56:26;;;;;;;51.50;30.10;;;;;;;9.59;100.00;99590.11;104403;1274;102757;-77
2024/03/23 05:59:11;;;;;;;52.10;31.80;;;;;;;9.60;100.00;99592.33;104451;1269;100671;-77
2024/03/23 06:01:57;;;;;;;52.20;31.30;;;;;;;9.60;100.00;99597.84;104525;1273;99341;-77
2024/03/23 06:04:45;;;;;;;53.10;30.00;;;;;;;9.60;100.00;99596.95;104383;1270;99403;-75
2024/03/23 06:07:31;;;;;;;54.10;31.90;;;;;;;9.60;100.00;99596.77;104407;1270;99801;-77
2024/03/23 06:10:17;;;;;;;53.10;31.60;;;;;;;9.61;100.00;99593.90;104418;1273;104154;-76
2024/03/23 06:13:03;;;;;;;49.70;30.50;;;;;;;9.61;100.00;99593.45;104657;1270;99757;-77
2024/03/23 06:15:49;;;;;;;50.70;29.90;;;;;;;9.61;100.00;99591.64;104639;1273;99333;-76
2024/03/23 06:18:34;;;;;;;49.00;29.10;;;;;;;9.62;100.00;99585.68;104390;1275;99340;-76
2024/03/23 06:21:19;;;;;;;50.30;31.20;;;;;;;9.63;100.00;99574.27;104570;1270;97583;-76
2024/03/23 06:24:05;;;;;;;56.50;31.40;;;;;;;9.66;100.00;99569.09;104518;1270;102762;-76
2024/03/23 06:26:50;;;;;;;49.60;31.60;;;;;;;9.68;100.00;99567.52;104601;1270;99799;-76
2024/03/23 06:29:36;;;;;;;50.40;29.90;;;;;;;9.69;100.00;99567.90;104573;1273;99370;-76
2024/03/23 06:32:22;;;;;;;51.00;30.10;;;;;;;9.71;100.00;99566.73;104399;1273;99333;-75
2024/03/23 06:35:09;;;;;;;50.60;31.40;;;;;;;9.73;100.00;99566.46;104378;1276;99429;-77
2024/03/23 06:37:54;;;;;;;51.20;31.30;;;;;;;9.74;100.00;99569.80;104528;1273;102744;-76
2024/03/23 06:40:40;;;;;;;51.00;30.40;;;;;;;9.74;100.00;99563.34;104475;1270;100625;-76
2024/03/23 06:43:25;;;;;;;51.90;30.10;;;;;;;9.74;100.00;99559.80;104533;1270;99384;-76
2024/03/23 06:46:11;;;;;;;48.00;31.10;;;;;;;9.74;100.00;99554.08;104443;1273;99311;-76
2024/03/23 06:48:56;;;;;;;57.10;34.80;;;;;;;9.73;100.00;99554.48;104480;1273;99862;-76
2024/03/23 06:51:42;;;;;;;53.50;32.50;;;;;;;9.73;100.00;99551.89;104405;1271;102837;-75
2024/03/23 06:54:27;;;;;;;50.50;31.80;;;;;;;9.73;100.00;99552.81;104427;1271;100626;-77
2024/03/23 06:57:13;;;;;;;45.90;30.70;;;;;;;9.74;100.00;99550.36;104425;1270;99337;-76
2024/03/23 06:59:58;;;;;;;46.70;29.20;;;;;;;9.73;100.00;99544.40;104390;1270;99371;-76
2024/03/23 07:02:44;;;;;;;50.70;30.30;;;;;;;9.73;100.00;99543.84;104545;1271;99773;-77
2024/03/23 07:05:30;;;;;;;46.00;28.60;;;;;;;9.74;100.00;99539.14;104695;1273;103109;-77
2024/03/23 07:08:20;;;;;;;44.40;29.60;;;;;;;9.74;100.00;99536.96;104404;1273;100503;-77
2024/03/23 07:11:06;;;;;;;43.70;29.10;;;;;;;9.74;100.00;99532.15;104412;1271;100537;-77
2024/03/23 07:13:55;;;;;;;46.20;28.10;;;;;;;9.74;100.00;99527.98;104436;1273;99375;-76
2024/03/23 07:16:41;;;;;;;49.20;29.80;;;;;;;9.74;100.00;99530.45;104509;1269;99876;-75
2024/03/23 07:19:26;;;;;;;47.60;29.90;;;;;;;9.74;100.00;99529.84;104562;1274;102780;-77
2024/03/23 07:22:12;;;;;;;48.90;30.60;;;;;;;9.75;100.00;99525.65;104593;1273;99343;-78
2024/03/23 07:25:00;;;;;;;48.60;29.70;;;;;;;9.75;100.00;99521.61;104519;1269;99347;-76
2024/03/23 07:27:46;;;;;;;50.40;30.70;;;;;;;9.76;100.00;99517.98;104477;1274;99863;-76
2024/03/23 07:30:45;;;;;;;;;;;;;;;;;;;;;
2024/03/23 07:33:31;;;;;;;50.20;30.70;;;;;;;9.78;100.00;99516.30;105425;1271;103847;-84
2024/03/23 07:36:17;;;;;;;50.70;29.80;;;;;;;9.78;100.00;99513.01;105144;1270;101932;-83
2024/03/23 07:39:03;;;;;;;50.00;30.30;;;;;;;9.79;100.00;99511.98;105008;1273;100535;-82
2024/03/23 07:41:49;;;;;;;46.50;28.80;;;;;;;9.81;100.00;99514.09;105316;1270;99193;-82
2024/03/23 07:44:34;;;;;;;45.90;28.20;;;;;;;9.83;100.00;99514.91;105541;1270;97858;-84
2024/03/23 07:47:21;;;;;;;44.70;27.20;;;;;;;9.84;100.00;99513.87;105266;1270;103490;-82
2024/03/23 07:50:06;;;;;;;45.80;24.70;;;;;;;9.85;100.00;99509.92;105444;1270;100448;-78
2024/03/23 07:52:51;;;;;;;43.60;24.80;;;;;;;9.88;100.00;99503.66;105691;1268;99323;-81
2024/03/23 07:55:37;;;;;;;42.80;25.50;;;;;;;9.91;100.00;99496.05;105429;1273;99335;-80
2024/03/23 07:58:23;;;;;;;40.30;25.20;;;;;;;9.94;100.00;99485.48;105713;1270;99166;-80
2024/03/23 08:01:17;;;;;;;44.50;25.20;;;;;;;9.97;100.00;99484.30;105660;1271;102732;-80
2024/03/23 08:04:02;;;;;;;42.20;24.20;;;;;;;10.03;100.00;99479.45;105773;1269;99463;-80
2024/03/23 08:06:47;;;;;;;42.70;25.10;;;;;;;10.08;100.00;99473.20;105955;1268;99447;-81
2024/03/23 08:09:33;;;;;;;42.50;25.00;;;;;;;10.14;100.00;99465.88;105919;1268;99358;-81
2024/03/23 08:12:19;;;;;;;40.10;23.60;;;;;;;10.18;100.00;99460.96;105736;1272;100177;-78
2024/03/23 08:15:05;;;;;;;43.10;23.50;;;;;;;10.22;100.00;99458.97;105480;1273;102817;-77
2024/03/23 08:17:51;;;;;;;39.10;23.60;;;;;;;10.27;100.00;99450.30;105089;1271;100352;-78
2024/03/23 08:20:37;;;;;;;39.60;24.00;;;;;;;10.32;100.00;99444.92;105224;1269;99469;-80
2024/03/23 08:23:28;;;;;;;39.70;22.90;;;;;;;10.38;100.00;99442.96;105463;1268;99370;-80
2024/03/23 08:26:17;;;;;;;36.40;20.90;;;;;;;10.46;100.00;99439.33;105731;1270;99350;-81
2024/03/23 08:29:03;;;;;;;36.60;21.60;;;;;;;10.54;100.00;99430.89;105693;1270;102727;-80
2024/03/23 08:31:49;;;;;;;37.10;20.60;;;;;;;10.61;100.00;99430.11;105695;1273;100378;-80
2024/03/23 08:34:34;;;;;;;37.10;21.90;;;;;;;10.66;100.00;99420.81;105205;1270;99365;-79
2024/03/23 08:37:20;;;;;;;33.20;19.10;;;;;;;10.73;100.00;99411.61;105306;1271;99260;-79
2024/03/23 08:40:06;;;;;;;37.40;20.20;;;;;;;10.83;100.00;99407.63;105217;1270;99543;-80
2024/03/23 08:42:51;;;;;;;34.80;20.80;;;;;;;10.93;100.00;99403.52;105268;1268;103502;-79
2024/03/23 08:45:36;;;;;;;36.10;20.90;;;;;;;11.00;100.00;99399.52;105338;1268;100364;-79
2024/03/23 08:48:22;;;;;;;36.40;19.90;;;;;;;11.05;100.00;99392.24;105196;1273;99383;-79
2024/03/23 08:51:09;;;;;;;28.20;18.70;;;;;;;11.08;100.00;99393.13;105535;1271;99793;-79
2024/03/23 08:53:55;;;;;;;29.10;18.90;;;;;;;11.09;100.00;99392.14;105262;1271;98263;-80
2024/03/23 08:56:40;;;;;;;30.50;17.90;;;;;;;11.10;100.00;99386.98;105283;1268;104011;-79
2024/03/23 08:59:26;;;;;;;31.50;18.90;;;;;;;11.11;100.00;99384.54;105201;1268;99301;-77
2024/03/23 09:02:11;;;;;;;30.50;18.70;;;;;;;11.12;100.00;99383.33;105173;1268;99409;-80
2024/03/23 09:04:59;;;;;;;30.80;19.30;;;;;;;11.14;100.00;99375.59;105165;1270;99462;-79
2024/03/23 09:07:45;;;;;;;32.90;19.40;;;;;;;11.19;100.00;99375.02;105311;1273;99893;-79
2024/03/23 09:10:30;;;;;;;32.10;19.90;;;;;;;11.22;100.00;99367.80;105214;1273;102776;-80
2024/03/23 09:13:16;;;;;;;33.20;19.20;;;;;;;11.26;100.00;99363.11;105209;1274;99680;-80
2024/03/23 09:16:02;;;;;;;30.80;18.70;;;;;;;11.28;100.00;99361.77;105718;1267;99278;-80
2024/03/23 09:18:48;;;;;;;30.00;19.20;;;;;;;11.29;100.00;99357.14;105250;1273;99473;-85
2024/03/23 09:21:34;;;;;;;31.90;19.90;;;;;;;11.31;100.00;99352.00;105260;1268;99899;-84
2024/03/23 09:24:19;;;;;;;33.80;19.00;;;;;;;11.36;100.00;99341.32;105118;1274;102682;-85
2024/03/23 09:27:05;;;;;;;30.90;18.30;;;;;;;11.44;100.00;99330.55;105109;1275;100484;-84
2024/03/23 09:29:51;;;;;;;28.00;18.80;;;;;;;11.53;100.00;99323.98;105079;1268;99312;-83
2024/03/23 09:32:38;;;;;;;31.00;18.10;;;;;;;11.60;100.00;99316.42;105223;1268;99403;-84
2024/03/23 09:35:24;;;;;;;34.50;20.30;;;;;;;11.66;100.00;99310.71;105400;1268;99324;-86
2024/03/23 09:38:10;;;;;;;32.90;19.50;;;;;;;11.73;100.00;99300.66;105454;1268;104969;-87
2024/03/23 09:40:57;;;;;;;30.80;19.20;;;;;;;11.83;100.00;99293.19;105269;1272;100445;-84
2024/03/23 09:43:43;;;;;;;28.30;18.70;;;;;;;11.94;100.00;99281.80;105183;1268;107088;-88
2024/03/23 09:46:33;;;;;;;36.80;20.40;;;;;;;12.03;100.00;99266.60;105332;1268;99397;-82
2024/03/23 09:49:19;;;;;;;28.30;18.70;;;;;;;12.16;100.00;99257.88;105095;1269;99135;-83
2024/03/23 09:52:05;;;;;;;29.90;18.00;;;;;;;12.29;100.00;99248.95;105386;1270;104231;-80
2024/03/23 09:54:56;;;;;;;31.70;18.80;;;;;;;12.40;100.00;99238.98;105732;1271;100785;-85
2024/03/23 09:57:43;;;;;;;37.60;24.80;;;;;;;12.53;100.00;99235.26;105774;1268;99155;-86
2024/03/23 10:00:29;;;;;;;33.20;18.90;;;;;;;12.66;100.00;99232.78;105241;1270;99337;-80
2024/03/23 10:03:14;;;;;;;26.20;16.80;;;;;;;12.76;100.00;99232.80;105358;1268;99291;-83
2024/03/23 10:06:02;;;;;;;24.20;16.60;;;;;;;12.86;100.00;99225.63;105355;1269;104009;-83
2024/03/23 10:08:48;;;;;;;23.00;16.00;;;;;;;12.95;100.00;99217.98;105285;1273;100560;-82
2024/03/23 10:11:34;;;;;;;22.00;14.20;;;;;;;13.04;100.00;99209.11;105364;1271;99351;-84
2024/03/23 10:14:30;;;;;;;22.30;14.90;;;;;;;13.13;100.00;99209.06;105388;1268;99435;-87
2024/03/23 10:17:24;;;;;;;23.10;13.90;;;;;;;13.22;100.00;99211.77;105319;1270;99741;-83
2024/03/23 10:20:11;;;;;;;23.50;14.30;;;;;;;13.28;100.00;99204.90;105302;1268;104968;-83
2024/03/23 10:22:57;;;;;;;25.40;16.60;;;;;;;13.36;100.00;99197.20;105400;1270;100538;-83
2024/03/23 10:25:45;;;;;;;21.50;13.90;;;;;;;13.46;100.00;99189.02;105510;1270;99383;-85
2024/03/23 10:28:32;;;;;;;21.80;14.50;;;;;;;13.55;100.00;99188.80;105277;1270;99410;-86
2024/03/23 10:31:21;;;;;;;21.40;13.30;;;;;;;13.63;100.00;99181.70;105173;1273;99877;-85
2024/03/23 10:34:07;;;;;;;18.30;12.80;;;;;;;13.72;100.00;99181.29;105172;1273;105100;-83
2024/03/23 10:36:53;;;;;;;19.80;13.10;;;;;;;13.82;100.00;99172.58;105305;1273;100465;-83
2024/03/23 10:39:40;;;;;;;19.20;12.50;;;;;;;13.93;100.00;99167.71;105215;1270;98978;-82
2024/03/23 10:42:26;;;;;;;21.30;13.70;;;;;;;14.04;100.00;99163.59;105441;1276;99349;-87
2024/03/23 10:45:12;;;;;;;19.10;12.60;;;;;;;14.14;100.00;99156.61;105627;1270;101031;-86
2024/03/23 10:47:59;;;;;;;23.60;12.50;;;;;;;14.23;100.00;99146.14;105379;1271;104662;-85
2024/03/23 10:50:44;;;;;;;20.40;12.80;;;;;;;14.32;100.00;99145.11;104997;1271;176437;-79
2024/03/23 10:53:34;;;;;;;19.70;13.50;;;;;;;14.42;100.00;99148.25;105327;1272;99358;-79
2024/03/23 10:56:19;;;;;;;18.50;12.40;;;;;;;14.50;100.00;99149.13;105058;1273;99330;-79
2024/03/23 10:59:09;;;;;;;16.60;11.20;;;;;;;14.56;100.00;99144.27;105290;1274;99800;-93
2024/03/23 11:02:20;;;;;;;18.60;12.20;;;;;;;14.60;100.00;99138.54;105539;1274;104013;-81
2024/03/23 11:05:29;;;;;;;17.80;11.90;;;;;;;14.62;100.00;99136.53;105251;1271;99362;-83
2024/03/23 11:08:35;;;;;;;18.00;12.20;;;;;;;14.65;100.00;99135.44;105310;1271;99422;-87
2024/03/23 11:11:22;;;;;;;14.40;10.60;;;;;;;14.74;100.00;99130.43;105415;1270;99333;-88
2024/03/23 11:14:23;;;;;;;19.10;11.90;;;;;;;14.80;100.00;99121.34;105536;1271;99409;-88
2024/03/23 11:17:10;;;;;;;18.50;12.50;;;;;;;14.84;100.00;99114.33;105299;1268;102733;-88
2024/03/23 11:20:00;;;;;;;17.80;11.60;;;;;;;14.87;100.00;99110.93;105636;1270;100963;-87
2024/03/23 11:22:47;;;;;;;;;;;;;;;14.94;100.00;99100.08;105226;1268;106422;-86
2024/03/23 11:25:33;;;;;;;14.60;10.30;;;;;;;14.99;100.00;99095.17;105197;1274;99272;-85
2024/03/23 11:28:18;;;;;;;15.70;11.60;;;;;;;15.04;100.00;99097.72;105361;1271;99336;-85
2024/03/23 11:31:10;;;;;;;17.80;11.20;;;;;;;15.05;100.00;99092.72;105363;1270;104837;-84
2024/03/23 11:34:06;;;;;;;22.30;12.40;;;;;;;15.06;100.00;99081.14;105281;1275;102074;-83
2024/03/23 11:37:04;;;;;;;14.00;11.10;;;;;;;15.06;100.00;99076.65;105373;1273;99278;-86
2024/03/23 11:39:50;;;;;;;16.10;10.80;;;;;;;15.09;100.00;99069.84;105202;1268;97923;-83
2024/03/23 11:42:36;;;;;;;18.90;12.60;;;;;;;15.22;100.00;99059.24;105316;1272;99864;-82
2024/03/23 11:45:21;;;;;;;16.00;12.00;;;;;;;15.39;100.00;99056.40;105546;1274;102721;-83
2024/03/23 11:48:12;;;;;;;16.20;11.30;;;;;;;15.49;100.00;99054.31;105589;1269;99445;-81
2024/03/23 11:50:57;;;;;;;16.30;10.90;;;;;;;15.51;100.00;99050.44;105453;1271;100129;-82
2024/03/23 11:53:43;;;;;;;16.20;10.80;;;;;;;15.47;99.76;99047.86;105403;1268;99434;-81
2024/03/23 11:56:29;;;;;;;17.80;12.30;;;;;;;15.39;98.83;99046.52;105424;1270;99455;-80
2024/03/23 11:59:44;;;;;;;15.40;11.00;;;;;;;15.30;98.49;99034.88;105449;1270;104138;-91
2024/03/23 12:02:32;;;;;;;15.40;10.90;;;;;;;15.24;98.22;99033.52;105023;1273;100467;-84
2024/03/23 12:05:22;;;;;;;16.70;10.80;;;;;;;15.18;97.66;99024.30;105322;1276;100600;-82
2024/03/23 12:08:40;;;;;;;15.90;10.30;;;;;;;15.13;97.73;99020.37;105431;1269;99346;-85
2024/03/23 12:11:26;;;;;;;16.20;11.00;;;;;;;15.11;97.44;99021.24;105694;1271;99351;-81
2024/03/23 12:14:14;;;;;;;15.00;10.40;;;;;;;15.11;97.58;99014.02;105763;1270;103420;-85
2024/03/23 12:17:14;;;;;;;16.20;10.40;;;;;;;15.16;98.19;99005.27;105561;1271;99428;-90
2024/03/23 12:20:01;;;;;;;14.90;10.20;;;;;;;15.21;98.20;98998.48;105737;1274;99369;-89
2024/03/23 12:22:47;;;;;;;13.10;9.50;;;;;;;15.23;97.10;98988.15;105634;1268;99340;-86
2024/03/23 12:25:32;;;;;;;12.80;9.70;;;;;;;15.24;95.92;98985.55;105365;1273;100590;-88
2024/03/23 12:28:18;;;;;;;14.30;9.70;;;;;;;15.23;95.16;98984.69;105257;1276;104173;-81
2024/03/23 12:31:05;;;;;;;15.00;9.80;;;;;;;15.21;95.81;98977.18;105505;1273;100481;-79
2024/03/23 12:33:51;;;;;;;14.00;9.50;;;;;;;15.21;95.94;98972.38;105701;1269;99448;-81